sensor_id;sensor_type;location;lat;lon;timestamp;temperature;humidity
12568;DHT22;6349;50.904;6.136;2022-08-21T00:00:41;18.00;99.90
12568;DHT22;6349;50.904;6.136;2022-08-21T00:02:47;17.90;99.90
12568;DHT22;6349;50.904;6.136;2022-08-21T00:04:49;17.90;99.90
12568;DHT22;6349;50.904;6.136;2022-08-21T00:06:51;17.90;99.90
12568;DHT22;6349;50.904;6.136;2022-08-21T00:08:52;17.80;99.90
12568;DHT22;6349;50.904;6.136;2022-08-21T00:10:52;17.80;99.90
12568;DHT22;6349;50.904;6.136;2022-08-21T00:12:53;17.80;99.90
12568;DHT22;6349;50.904;6.136;2022-08-21T00:14:54;17.80;99.90
12568;DHT22;6349;50.904;6.136;2022-08-21T00:16:55;17.80;99.90
12568;DHT22;6349;50.904;6.136;2022-08-21T00:18:56;17.80;99.90
12568;DHT22;6349;50.904;6.136;2022-08-21T00:20:56;17.70;99.90
12568;DHT22;6349;50.904;6.136;2022-08-21T00:22:57;17.70;99.90
12568;DHT22;6349;50.904;6.136;2022-08-21T00:24:58;17.70;99.90
12568;DHT22;6349;50.904;6.136;2022-08-21T00:26:58;17.70;99.90
12568;DHT22;6349;50.904;6.136;2022-08-21T00:28:59;17.70;99.90
12568;DHT22;6349;50.904;6.136;2022-08-21T00:31:00;17.70;99.90
12568;DHT22;6349;50.904;6.136;2022-08-21T00:33:01;17.60;99.90
12568;DHT22;6349;50.904;6.136;2022-08-21T00:35:05;17.60;99.90
12568;DHT22;6349;50.904;6.136;2022-08-21T00:37:06;17.60;99.90
12568;DHT22;6349;50.904;6.136;2022-08-21T00:39:08;17.60;99.90
12568;DHT22;6349;50.904;6.136;2022-08-21T00:41:09;17.50;99.90
12568;DHT22;6349;50.904;6.136;2022-08-21T00:43:13;17.50;99.90
12568;DHT22;6349;50.904;6.136;2022-08-21T00:45:14;17.50;99.90
12568;DHT22;6349;50.904;6.136;2022-08-21T00:47:14;17.50;99.90
12568;DHT22;6349;50.904;6.136;2022-08-21T00:49:16;17.40;99.90
12568;DHT22;6349;50.904;6.136;2022-08-21T00:51:22;17.40;99.90
12568;DHT22;6349;50.904;6.136;2022-08-21T00:53:26;17.50;99.90
12568;DHT22;6349;50.904;6.136;2022-08-21T00:55:29;17.40;99.90
12568;DHT22;6349;50.904;6.136;2022-08-21T00:57:34;17.40;99.90
12568;DHT22;6349;50.904;6.136;2022-08-21T00:59:37;17.40;99.90
12568;DHT22;6349;50.904;6.136;2022-08-21T01:01:38;17.40;99.90
12568;DHT22;6349;50.904;6.136;2022-08-21T01:03:39;17.40;99.90
12568;DHT22;6349;50.904;6.136;2022-08-21T01:05:41;17.30;99.90
12568;DHT22;6349;50.904;6.136;2022-08-21T01:07:43;17.30;99.90
12568;DHT22;6349;50.904;6.136;2022-08-21T01:09:46;17.30;99.90
12568;DHT22;6349;50.904;6.136;2022-08-21T01:11:47;17.30;99.90
12568;DHT22;6349;50.904;6.136;2022-08-21T01:13:48;17.30;99.90
12568;DHT22;6349;50.904;6.136;2022-08-21T01:15:50;17.30;99.90
12568;DHT22;6349;50.904;6.136;2022-08-21T01:17:53;17.30;99.90
12568;DHT22;6349;50.904;6.136;2022-08-21T01:19:58;17.30;99.90
12568;DHT22;6349;50.904;6.136;2022-08-21T01:21:59;17.20;99.90
12568;DHT22;6349;50.904;6.136;2022-08-21T01:24:00;17.30;99.90
12568;DHT22;6349;50.904;6.136;2022-08-21T01:26:00;17.20;99.90
12568;DHT22;6349;50.904;6.136;2022-08-21T01:28:06;17.20;99.90
12568;DHT22;6349;50.904;6.136;2022-08-21T01:30:24;17.20;99.90
12568;DHT22;6349;50.904;6.136;2022-08-21T01:32:25;17.20;99.90
12568;DHT22;6349;50.904;6.136;2022-08-21T01:34:26;17.20;99.90
12568;DHT22;6349;50.904;6.136;2022-08-21T01:36:26;17.10;99.90
12568;DHT22;6349;50.904;6.136;2022-08-21T01:38:27;17.10;99.90
12568;DHT22;6349;50.904;6.136;2022-08-21T01:40:28;17.10;99.90
12568;DHT22;6349;50.904;6.136;2022-08-21T01:42:28;17.10;99.90
12568;DHT22;6349;50.904;6.136;2022-08-21T01:44:29;17.10;99.90
12568;DHT22;6349;50.904;6.136;2022-08-21T01:46:30;17.10;99.90
12568;DHT22;6349;50.904;6.136;2022-08-21T01:48:31;17.10;99.90
12568;DHT22;6349;50.904;6.136;2022-08-21T01:50:32;17.10;99.90
12568;DHT22;6349;50.904;6.136;2022-08-21T01:52:33;17.00;99.90
12568;DHT22;6349;50.904;6.136;2022-08-21T01:54:34;17.00;99.90
12568;DHT22;6349;50.904;6.136;2022-08-21T01:56:45;17.00;99.90
12568;DHT22;6349;50.904;6.136;2022-08-21T01:58:46;16.90;99.90
12568;DHT22;6349;50.904;6.136;2022-08-21T02:00:47;16.90;99.90
12568;DHT22;6349;50.904;6.136;2022-08-21T02:02:49;16.90;99.90
12568;DHT22;6349;50.904;6.136;2022-08-21T02:04:50;16.90;99.90
12568;DHT22;6349;50.904;6.136;2022-08-21T02:06:50;16.90;99.90
12568;DHT22;6349;50.904;6.136;2022-08-21T02:08:52;16.80;99.90
12568;DHT22;6349;50.904;6.136;2022-08-21T02:10:52;16.90;99.90
12568;DHT22;6349;50.904;6.136;2022-08-21T02:12:54;16.90;99.90
12568;DHT22;6349;50.904;6.136;2022-08-21T02:14:55;16.90;99.90
12568;DHT22;6349;50.904;6.136;2022-08-21T02:16:56;16.70;99.90
12568;DHT22;6349;50.904;6.136;2022-08-21T02:18:56;16.60;99.90
12568;DHT22;6349;50.904;6.136;2022-08-21T02:20:57;16.60;99.90
12568;DHT22;6349;50.904;6.136;2022-08-21T02:22:58;16.60;99.90
12568;DHT22;6349;50.904;6.136;2022-08-21T02:24:58;16.50;99.90
12568;DHT22;6349;50.904;6.136;2022-08-21T02:26:59;16.60;99.90
12568;DHT22;6349;50.904;6.136;2022-08-21T02:29:00;16.60;99.90
12568;DHT22;6349;50.904;6.136;2022-08-21T02:31:01;16.50;99.90
12568;DHT22;6349;50.904;6.136;2022-08-21T02:33:01;16.50;99.90
12568;DHT22;6349;50.904;6.136;2022-08-21T02:35:03;16.50;99.90
12568;DHT22;6349;50.904;6.136;2022-08-21T02:37:03;16.50;99.90
12568;DHT22;6349;50.904;6.136;2022-08-21T02:39:04;16.50;99.90
12568;DHT22;6349;50.904;6.136;2022-08-21T02:41:07;16.50;99.90
12568;DHT22;6349;50.904;6.136;2022-08-21T02:43:08;16.50;99.90
12568;DHT22;6349;50.904;6.136;2022-08-21T02:45:10;16.50;99.90
12568;DHT22;6349;50.904;6.136;2022-08-21T02:47:11;16.50;99.90
12568;DHT22;6349;50.904;6.136;2022-08-21T02:49:12;16.50;99.90
12568;DHT22;6349;50.904;6.136;2022-08-21T02:51:15;16.50;99.90
12568;DHT22;6349;50.904;6.136;2022-08-21T02:53:17;16.50;99.90
12568;DHT22;6349;50.904;6.136;2022-08-21T02:55:20;16.40;99.90
12568;DHT22;6349;50.904;6.136;2022-08-21T02:57:21;16.40;99.90
12568;DHT22;6349;50.904;6.136;2022-08-21T02:59:21;16.40;99.90
12568;DHT22;6349;50.904;6.136;2022-08-21T03:01:22;16.40;99.90
12568;DHT22;6349;50.904;6.136;2022-08-21T03:03:22;16.40;99.90
12568;DHT22;6349;50.904;6.136;2022-08-21T03:05:24;16.30;99.90
12568;DHT22;6349;50.904;6.136;2022-08-21T03:07:25;16.30;99.90
12568;DHT22;6349;50.904;6.136;2022-08-21T03:09:26;16.30;99.90
12568;DHT22;6349;50.904;6.136;2022-08-21T03:11:27;16.20;99.90
12568;DHT22;6349;50.904;6.136;2022-08-21T03:13:28;16.30;99.90
12568;DHT22;6349;50.904;6.136;2022-08-21T03:15:29;16.20;99.90
12568;DHT22;6349;50.904;6.136;2022-08-21T03:17:30;16.20;99.90
12568;DHT22;6349;50.904;6.136;2022-08-21T03:19:31;16.30;99.90
12568;DHT22;6349;50.904;6.136;2022-08-21T03:21:31;16.20;99.90
12568;DHT22;6349;50.904;6.136;2022-08-21T03:23:32;16.30;99.90
12568;DHT22;6349;50.904;6.136;2022-08-21T03:25:35;16.30;99.90
12568;DHT22;6349;50.904;6.136;2022-08-21T03:27:36;16.20;99.90
12568;DHT22;6349;50.904;6.136;2022-08-21T03:29:36;16.20;99.90
12568;DHT22;6349;50.904;6.136;2022-08-21T03:31:37;16.20;99.90
12568;DHT22;6349;50.904;6.136;2022-08-21T03:33:37;16.20;99.90
12568;DHT22;6349;50.904;6.136;2022-08-21T03:35:38;16.20;99.90
12568;DHT22;6349;50.904;6.136;2022-08-21T03:37:39;16.30;99.90
12568;DHT22;6349;50.904;6.136;2022-08-21T03:39:41;16.20;99.90
12568;DHT22;6349;50.904;6.136;2022-08-21T03:41:44;16.20;99.90
12568;DHT22;6349;50.904;6.136;2022-08-21T03:43:45;16.20;99.90
12568;DHT22;6349;50.904;6.136;2022-08-21T03:45:46;16.20;99.90
12568;DHT22;6349;50.904;6.136;2022-08-21T03:47:59;16.20;99.90
12568;DHT22;6349;50.904;6.136;2022-08-21T03:50:01;16.20;99.90
12568;DHT22;6349;50.904;6.136;2022-08-21T03:52:02;16.20;99.90
12568;DHT22;6349;50.904;6.136;2022-08-21T03:54:04;16.10;99.90
12568;DHT22;6349;50.904;6.136;2022-08-21T03:56:04;16.10;99.90
12568;DHT22;6349;50.904;6.136;2022-08-21T03:58:05;16.10;99.90
12568;DHT22;6349;50.904;6.136;2022-08-21T04:00:07;16.10;99.90
12568;DHT22;6349;50.904;6.136;2022-08-21T04:02:13;16.00;99.90
12568;DHT22;6349;50.904;6.136;2022-08-21T04:04:17;16.00;99.90
12568;DHT22;6349;50.904;6.136;2022-08-21T04:06:17;16.00;99.90
12568;DHT22;6349;50.904;6.136;2022-08-21T04:08:18;16.10;99.90
12568;DHT22;6349;50.904;6.136;2022-08-21T04:10:19;16.00;99.90
12568;DHT22;6349;50.904;6.136;2022-08-21T04:12:20;16.00;99.90
12568;DHT22;6349;50.904;6.136;2022-08-21T04:14:21;16.00;99.90
12568;DHT22;6349;50.904;6.136;2022-08-21T04:16:22;16.10;99.90
12568;DHT22;6349;50.904;6.136;2022-08-21T04:18:23;16.00;99.90
12568;DHT22;6349;50.904;6.136;2022-08-21T04:20:23;15.90;99.90
12568;DHT22;6349;50.904;6.136;2022-08-21T04:22:25;16.00;99.90
12568;DHT22;6349;50.904;6.136;2022-08-21T04:24:25;15.90;99.90
12568;DHT22;6349;50.904;6.136;2022-08-21T04:26:26;15.90;99.90
12568;DHT22;6349;50.904;6.136;2022-08-21T04:28:27;16.00;99.90
12568;DHT22;6349;50.904;6.136;2022-08-21T04:30:28;15.90;99.90
12568;DHT22;6349;50.904;6.136;2022-08-21T04:32:28;15.90;99.90
12568;DHT22;6349;50.904;6.136;2022-08-21T04:34:30;15.90;99.90
12568;DHT22;6349;50.904;6.136;2022-08-21T04:36:32;15.80;99.90
12568;DHT22;6349;50.904;6.136;2022-08-21T04:38:33;15.80;99.90
12568;DHT22;6349;50.904;6.136;2022-08-21T04:40:34;15.90;99.90
12568;DHT22;6349;50.904;6.136;2022-08-21T04:42:51;15.80;99.90
12568;DHT22;6349;50.904;6.136;2022-08-21T04:44:53;15.80;99.90
12568;DHT22;6349;50.904;6.136;2022-08-21T04:46:54;15.80;99.90
12568;DHT22;6349;50.904;6.136;2022-08-21T04:48:54;15.80;99.90
12568;DHT22;6349;50.904;6.136;2022-08-21T04:51:10;15.90;99.90
12568;DHT22;6349;50.904;6.136;2022-08-21T04:53:18;15.70;99.90
12568;DHT22;6349;50.904;6.136;2022-08-21T04:55:20;15.70;99.90
12568;DHT22;6349;50.904;6.136;2022-08-21T04:57:21;15.70;99.90
12568;DHT22;6349;50.904;6.136;2022-08-21T04:59:35;15.70;99.90
12568;DHT22;6349;50.904;6.136;2022-08-21T05:01:37;15.70;99.90
12568;DHT22;6349;50.904;6.136;2022-08-21T05:03:40;15.60;99.90
12568;DHT22;6349;50.904;6.136;2022-08-21T05:05:41;15.60;99.90
12568;DHT22;6349;50.904;6.136;2022-08-21T05:07:44;15.60;99.90
12568;DHT22;6349;50.904;6.136;2022-08-21T05:09:45;15.60;99.90
12568;DHT22;6349;50.904;6.136;2022-08-21T05:11:45;15.50;99.90
12568;DHT22;6349;50.904;6.136;2022-08-21T05:13:46;15.40;99.90
12568;DHT22;6349;50.904;6.136;2022-08-21T05:15:47;15.50;99.90
12568;DHT22;6349;50.904;6.136;2022-08-21T05:17:48;15.40;99.90
12568;DHT22;6349;50.904;6.136;2022-08-21T05:19:48;15.40;99.90
12568;DHT22;6349;50.904;6.136;2022-08-21T05:21:49;15.40;99.90
12568;DHT22;6349;50.904;6.136;2022-08-21T05:23:49;15.40;99.90
12568;DHT22;6349;50.904;6.136;2022-08-21T05:25:51;15.40;99.90
12568;DHT22;6349;50.904;6.136;2022-08-21T05:27:51;15.40;99.90
12568;DHT22;6349;50.904;6.136;2022-08-21T05:29:53;15.40;99.90
12568;DHT22;6349;50.904;6.136;2022-08-21T05:31:54;15.30;99.90
12568;DHT22;6349;50.904;6.136;2022-08-21T05:33:55;15.30;99.90
12568;DHT22;6349;50.904;6.136;2022-08-21T05:35:56;15.30;99.90
12568;DHT22;6349;50.904;6.136;2022-08-21T05:37:57;15.30;99.90
12568;DHT22;6349;50.904;6.136;2022-08-21T05:39:59;15.30;99.90
12568;DHT22;6349;50.904;6.136;2022-08-21T05:42:00;15.30;99.90
12568;DHT22;6349;50.904;6.136;2022-08-21T05:44:01;15.30;99.90
12568;DHT22;6349;50.904;6.136;2022-08-21T05:46:05;15.20;99.90
12568;DHT22;6349;50.904;6.136;2022-08-21T05:48:22;15.30;99.90
12568;DHT22;6349;50.904;6.136;2022-08-21T05:50:23;15.30;99.90
12568;DHT22;6349;50.904;6.136;2022-08-21T05:52:23;15.30;99.90
12568;DHT22;6349;50.904;6.136;2022-08-21T05:54:24;15.30;99.90
12568;DHT22;6349;50.904;6.136;2022-08-21T05:56:25;15.30;99.90
12568;DHT22;6349;50.904;6.136;2022-08-21T05:58:26;15.30;99.90
12568;DHT22;6349;50.904;6.136;2022-08-21T06:00:26;15.40;99.90
12568;DHT22;6349;50.904;6.136;2022-08-21T06:02:27;15.30;99.90
12568;DHT22;6349;50.904;6.136;2022-08-21T06:04:27;15.30;99.90
12568;DHT22;6349;50.904;6.136;2022-08-21T06:06:28;15.40;99.90
12568;DHT22;6349;50.904;6.136;2022-08-21T06:08:29;15.40;99.90
12568;DHT22;6349;50.904;6.136;2022-08-21T06:10:30;15.50;99.90
12568;DHT22;6349;50.904;6.136;2022-08-21T06:12:30;15.50;99.90
12568;DHT22;6349;50.904;6.136;2022-08-21T06:14:31;15.50;99.90
12568;DHT22;6349;50.904;6.136;2022-08-21T06:16:32;15.50;99.90
12568;DHT22;6349;50.904;6.136;2022-08-21T06:18:33;15.60;99.90
12568;DHT22;6349;50.904;6.136;2022-08-21T06:20:34;15.60;99.90
12568;DHT22;6349;50.904;6.136;2022-08-21T06:22:34;15.60;99.90
12568;DHT22;6349;50.904;6.136;2022-08-21T06:24:35;15.70;99.90
12568;DHT22;6349;50.904;6.136;2022-08-21T06:26:36;15.70;99.90
12568;DHT22;6349;50.904;6.136;2022-08-21T06:28:37;15.70;99.90
12568;DHT22;6349;50.904;6.136;2022-08-21T06:30:39;15.80;99.90
12568;DHT22;6349;50.904;6.136;2022-08-21T06:32:40;15.80;99.90
12568;DHT22;6349;50.904;6.136;2022-08-21T06:34:41;15.90;99.90
12568;DHT22;6349;50.904;6.136;2022-08-21T06:36:41;15.90;99.90
12568;DHT22;6349;50.904;6.136;2022-08-21T06:38:42;16.00;99.90
12568;DHT22;6349;50.904;6.136;2022-08-21T06:40:42;15.90;99.90
12568;DHT22;6349;50.904;6.136;2022-08-21T06:42:43;16.10;99.90
12568;DHT22;6349;50.904;6.136;2022-08-21T06:44:44;16.10;99.90
12568;DHT22;6349;50.904;6.136;2022-08-21T06:46:45;16.20;99.90
12568;DHT22;6349;50.904;6.136;2022-08-21T06:48:45;16.30;99.90
12568;DHT22;6349;50.904;6.136;2022-08-21T06:50:46;16.40;99.90
12568;DHT22;6349;50.904;6.136;2022-08-21T06:52:47;16.40;99.90
12568;DHT22;6349;50.904;6.136;2022-08-21T06:54:48;16.60;99.90
12568;DHT22;6349;50.904;6.136;2022-08-21T06:56:48;16.70;99.90
12568;DHT22;6349;50.904;6.136;2022-08-21T06:58:49;16.80;99.90
12568;DHT22;6349;50.904;6.136;2022-08-21T07:00:50;16.90;99.90
12568;DHT22;6349;50.904;6.136;2022-08-21T07:02:54;17.00;99.90
12568;DHT22;6349;50.904;6.136;2022-08-21T07:04:55;17.10;99.90
12568;DHT22;6349;50.904;6.136;2022-08-21T07:06:56;17.20;99.90
12568;DHT22;6349;50.904;6.136;2022-08-21T07:08:56;17.20;99.90
12568;DHT22;6349;50.904;6.136;2022-08-21T07:10:58;17.20;99.90
12568;DHT22;6349;50.904;6.136;2022-08-21T07:12:59;17.30;99.90
12568;DHT22;6349;50.904;6.136;2022-08-21T07:15:00;17.40;99.90
12568;DHT22;6349;50.904;6.136;2022-08-21T07:17:00;17.40;99.90
12568;DHT22;6349;50.904;6.136;2022-08-21T07:19:01;17.40;99.90
12568;DHT22;6349;50.904;6.136;2022-08-21T07:21:03;17.50;99.90
12568;DHT22;6349;50.904;6.136;2022-08-21T07:23:08;17.50;99.90
12568;DHT22;6349;50.904;6.136;2022-08-21T07:25:09;17.60;99.90
12568;DHT22;6349;50.904;6.136;2022-08-21T07:27:09;17.60;99.90
12568;DHT22;6349;50.904;6.136;2022-08-21T07:29:10;17.60;99.90
12568;DHT22;6349;50.904;6.136;2022-08-21T07:31:13;17.60;99.90
12568;DHT22;6349;50.904;6.136;2022-08-21T07:33:14;17.60;99.90
12568;DHT22;6349;50.904;6.136;2022-08-21T07:35:16;17.60;99.90
12568;DHT22;6349;50.904;6.136;2022-08-21T07:37:17;17.70;99.90
12568;DHT22;6349;50.904;6.136;2022-08-21T07:39:17;17.70;99.90
12568;DHT22;6349;50.904;6.136;2022-08-21T07:41:24;17.80;99.90
12568;DHT22;6349;50.904;6.136;2022-08-21T07:43:26;17.80;99.90
12568;DHT22;6349;50.904;6.136;2022-08-21T07:45:26;17.90;99.90
12568;DHT22;6349;50.904;6.136;2022-08-21T07:47:27;17.90;99.90
12568;DHT22;6349;50.904;6.136;2022-08-21T07:49:29;18.00;99.90
12568;DHT22;6349;50.904;6.136;2022-08-21T07:51:30;18.00;99.90
12568;DHT22;6349;50.904;6.136;2022-08-21T07:53:31;18.00;99.90
12568;DHT22;6349;50.904;6.136;2022-08-21T07:55:31;18.10;99.90
12568;DHT22;6349;50.904;6.136;2022-08-21T07:57:32;18.20;99.90
12568;DHT22;6349;50.904;6.136;2022-08-21T07:59:32;18.20;99.90
12568;DHT22;6349;50.904;6.136;2022-08-21T08:01:33;18.20;99.90
12568;DHT22;6349;50.904;6.136;2022-08-21T08:03:34;18.30;99.90
12568;DHT22;6349;50.904;6.136;2022-08-21T08:05:34;18.30;99.90
12568;DHT22;6349;50.904;6.136;2022-08-21T08:07:37;18.30;99.90
12568;DHT22;6349;50.904;6.136;2022-08-21T08:09:38;18.30;99.90
12568;DHT22;6349;50.904;6.136;2022-08-21T08:11:41;18.30;99.90
12568;DHT22;6349;50.904;6.136;2022-08-21T08:13:49;18.40;99.90
12568;DHT22;6349;50.904;6.136;2022-08-21T08:15:50;18.50;99.90
12568;DHT22;6349;50.904;6.136;2022-08-21T08:17:51;18.50;99.90
12568;DHT22;6349;50.904;6.136;2022-08-21T08:19:53;18.60;99.90
12568;DHT22;6349;50.904;6.136;2022-08-21T08:21:54;18.60;99.90
12568;DHT22;6349;50.904;6.136;2022-08-21T08:23:54;18.70;99.90
12568;DHT22;6349;50.904;6.136;2022-08-21T08:25:55;18.60;99.90
12568;DHT22;6349;50.904;6.136;2022-08-21T08:27:55;18.70;99.90
12568;DHT22;6349;50.904;6.136;2022-08-21T08:29:56;18.80;99.90
12568;DHT22;6349;50.904;6.136;2022-08-21T08:31:57;18.80;99.90
12568;DHT22;6349;50.904;6.136;2022-08-21T08:33:58;18.80;99.90
12568;DHT22;6349;50.904;6.136;2022-08-21T08:35:59;18.90;99.90
12568;DHT22;6349;50.904;6.136;2022-08-21T08:37:59;18.90;99.90
12568;DHT22;6349;50.904;6.136;2022-08-21T08:40:00;19.00;99.90
12568;DHT22;6349;50.904;6.136;2022-08-21T08:42:11;19.00;99.90
12568;DHT22;6349;50.904;6.136;2022-08-21T08:44:13;19.00;99.90
12568;DHT22;6349;50.904;6.136;2022-08-21T08:46:16;19.00;99.90
12568;DHT22;6349;50.904;6.136;2022-08-21T08:51:00;19.00;99.90
12568;DHT22;6349;50.904;6.136;2022-08-21T08:53:09;19.10;99.90
12568;DHT22;6349;50.904;6.136;2022-08-21T08:55:18;19.10;99.90
12568;DHT22;6349;50.904;6.136;2022-08-21T08:57:23;19.30;99.90
12568;DHT22;6349;50.904;6.136;2022-08-21T08:59:35;19.40;99.90
12568;DHT22;6349;50.904;6.136;2022-08-21T09:01:36;19.40;99.90
12568;DHT22;6349;50.904;6.136;2022-08-21T09:03:38;19.50;99.90
12568;DHT22;6349;50.904;6.136;2022-08-21T09:05:46;19.50;99.90
12568;DHT22;6349;50.904;6.136;2022-08-21T09:10:13;19.60;99.90
12568;DHT22;6349;50.904;6.136;2022-08-21T09:14:58;19.80;99.90
12568;DHT22;6349;50.904;6.136;2022-08-21T09:24:29;20.00;99.90
12568;DHT22;6349;50.904;6.136;2022-08-21T09:29:02;20.00;99.90
12568;DHT22;6349;50.904;6.136;2022-08-21T09:31:27;20.10;99.90
12568;DHT22;6349;50.904;6.136;2022-08-21T09:33:28;20.10;99.90
12568;DHT22;6349;50.904;6.136;2022-08-21T09:35:29;20.20;99.90
12568;DHT22;6349;50.904;6.136;2022-08-21T09:37:33;20.30;99.90
12568;DHT22;6349;50.904;6.136;2022-08-21T09:39:39;20.30;99.90
12568;DHT22;6349;50.904;6.136;2022-08-21T09:41:40;20.30;99.90
12568;DHT22;6349;50.904;6.136;2022-08-21T09:43:52;20.40;99.90
12568;DHT22;6349;50.904;6.136;2022-08-21T09:46:12;20.50;99.90
12568;DHT22;6349;50.904;6.136;2022-08-21T09:48:20;20.50;99.90
12568;DHT22;6349;50.904;6.136;2022-08-21T09:50:26;20.50;99.90
12568;DHT22;6349;50.904;6.136;2022-08-21T09:52:27;20.60;99.90
12568;DHT22;6349;50.904;6.136;2022-08-21T09:54:36;20.60;99.90
12568;DHT22;6349;50.904;6.136;2022-08-21T09:56:51;20.60;99.90
12568;DHT22;6349;50.904;6.136;2022-08-21T09:59:32;20.70;99.90
12568;DHT22;6349;50.904;6.136;2022-08-21T10:01:43;20.70;99.90
12568;DHT22;6349;50.904;6.136;2022-08-21T10:03:44;20.80;99.90
12568;DHT22;6349;50.904;6.136;2022-08-21T10:05:58;20.80;99.90
12568;DHT22;6349;50.904;6.136;2022-08-21T10:08:00;20.80;99.90
12568;DHT22;6349;50.904;6.136;2022-08-21T10:10:08;20.80;99.90
12568;DHT22;6349;50.904;6.136;2022-08-21T10:12:23;20.80;99.90
12568;DHT22;6349;50.904;6.136;2022-08-21T10:14:53;20.80;99.90
12568;DHT22;6349;50.904;6.136;2022-08-21T10:17:14;20.80;99.90
12568;DHT22;6349;50.904;6.136;2022-08-21T10:21:52;20.90;99.90
12568;DHT22;6349;50.904;6.136;2022-08-21T10:24:08;20.90;99.90
12568;DHT22;6349;50.904;6.136;2022-08-21T10:26:39;21.00;99.90
12568;DHT22;6349;50.904;6.136;2022-08-21T10:29:00;21.00;99.90
12568;DHT22;6349;50.904;6.136;2022-08-21T10:31:25;21.10;99.90
12568;DHT22;6349;50.904;6.136;2022-08-21T10:33:46;21.10;99.90
12568;DHT22;6349;50.904;6.136;2022-08-21T10:40:36;21.10;99.90
12568;DHT22;6349;50.904;6.136;2022-08-21T10:47:42;21.30;99.90
12568;DHT22;6349;50.904;6.136;2022-08-21T10:52:36;21.50;99.90
12568;DHT22;6349;50.904;6.136;2022-08-21T10:54:46;21.50;99.90
12568;DHT22;6349;50.904;6.136;2022-08-21T10:56:51;21.60;99.90
12568;DHT22;6349;50.904;6.136;2022-08-21T10:59:24;21.50;99.90
12568;DHT22;6349;50.904;6.136;2022-08-21T11:03:41;21.60;99.90
12568;DHT22;6349;50.904;6.136;2022-08-21T11:05:47;21.60;99.90
12568;DHT22;6349;50.904;6.136;2022-08-21T11:07:53;21.60;99.90
12568;DHT22;6349;50.904;6.136;2022-08-21T11:09:56;21.60;99.90
12568;DHT22;6349;50.904;6.136;2022-08-21T11:12:34;21.80;99.90
12568;DHT22;6349;50.904;6.136;2022-08-21T11:15:01;21.90;99.90
12568;DHT22;6349;50.904;6.136;2022-08-21T11:17:12;21.90;99.90
12568;DHT22;6349;50.904;6.136;2022-08-21T11:26:35;22.10;99.90
12568;DHT22;6349;50.904;6.136;2022-08-21T11:28:52;22.10;99.90
12568;DHT22;6349;50.904;6.136;2022-08-21T11:31:16;22.20;99.90
12568;DHT22;6349;50.904;6.136;2022-08-21T11:35:49;22.20;99.90
12568;DHT22;6349;50.904;6.136;2022-08-21T11:40:24;22.30;99.90
12568;DHT22;6349;50.904;6.136;2022-08-21T11:54:35;22.60;99.90
12568;DHT22;6349;50.904;6.136;2022-08-21T11:56:45;22.60;99.90
12568;DHT22;6349;50.904;6.136;2022-08-21T11:58:54;22.60;99.90
12568;DHT22;6349;50.904;6.136;2022-08-21T12:01:05;22.40;99.90
12568;DHT22;6349;50.904;6.136;2022-08-21T12:03:25;22.40;99.90
12568;DHT22;6349;50.904;6.136;2022-08-21T12:05:37;22.30;99.90
12568;DHT22;6349;50.904;6.136;2022-08-21T12:07:43;22.40;99.90
12568;DHT22;6349;50.904;6.136;2022-08-21T12:09:55;22.50;99.90
12568;DHT22;6349;50.904;6.136;2022-08-21T12:12:06;22.50;99.90
12568;DHT22;6349;50.904;6.136;2022-08-21T12:16:31;22.50;99.90
12568;DHT22;6349;50.904;6.136;2022-08-21T12:18:32;22.60;99.90
12568;DHT22;6349;50.904;6.136;2022-08-21T12:21:29;22.70;99.90
12568;DHT22;6349;50.904;6.136;2022-08-21T12:23:43;22.80;99.90
12568;DHT22;6349;50.904;6.136;2022-08-21T12:26:18;22.90;99.90
12568;DHT22;6349;50.904;6.136;2022-08-21T12:28:23;23.00;99.90
12568;DHT22;6349;50.904;6.136;2022-08-21T12:32:54;23.10;99.90
12568;DHT22;6349;50.904;6.136;2022-08-21T12:35:02;23.10;99.90
12568;DHT22;6349;50.904;6.136;2022-08-21T12:37:15;23.20;99.90
12568;DHT22;6349;50.904;6.136;2022-08-21T12:39:24;23.30;99.90
12568;DHT22;6349;50.904;6.136;2022-08-21T12:41:33;23.40;99.90
12568;DHT22;6349;50.904;6.136;2022-08-21T12:43:51;23.40;99.90
12568;DHT22;6349;50.904;6.136;2022-08-21T12:45:53;23.40;99.90
12568;DHT22;6349;50.904;6.136;2022-08-21T12:48:06;23.40;99.90
12568;DHT22;6349;50.904;6.136;2022-08-21T12:50:13;23.40;99.90
12568;DHT22;6349;50.904;6.136;2022-08-21T12:52:35;23.60;99.90
12568;DHT22;6349;50.904;6.136;2022-08-21T12:54:41;23.60;99.90
12568;DHT22;6349;50.904;6.136;2022-08-21T12:56:42;23.70;99.90
12568;DHT22;6349;50.904;6.136;2022-08-21T12:58:51;23.60;99.90
12568;DHT22;6349;50.904;6.136;2022-08-21T13:01:03;23.60;99.90
12568;DHT22;6349;50.904;6.136;2022-08-21T13:03:06;23.60;99.90
12568;DHT22;6349;50.904;6.136;2022-08-21T13:05:11;23.60;99.90
12568;DHT22;6349;50.904;6.136;2022-08-21T13:07:15;23.40;99.90
12568;DHT22;6349;50.904;6.136;2022-08-21T13:09:20;23.50;99.90
12568;DHT22;6349;50.904;6.136;2022-08-21T13:11:23;23.50;99.90
12568;DHT22;6349;50.904;6.136;2022-08-21T13:13:26;23.50;99.90
12568;DHT22;6349;50.904;6.136;2022-08-21T13:15:33;23.60;99.90
12568;DHT22;6349;50.904;6.136;2022-08-21T13:17:36;23.30;99.90
12568;DHT22;6349;50.904;6.136;2022-08-21T13:19:38;23.30;99.90
12568;DHT22;6349;50.904;6.136;2022-08-21T13:21:41;23.30;99.90
12568;DHT22;6349;50.904;6.136;2022-08-21T13:23:43;23.40;99.90
12568;DHT22;6349;50.904;6.136;2022-08-21T13:25:43;23.40;99.90
12568;DHT22;6349;50.904;6.136;2022-08-21T13:27:57;23.50;99.90
12568;DHT22;6349;50.904;6.136;2022-08-21T13:30:13;23.60;99.90
12568;DHT22;6349;50.904;6.136;2022-08-21T13:32:21;23.70;99.90
12568;DHT22;6349;50.904;6.136;2022-08-21T13:34:26;23.80;99.90
12568;DHT22;6349;50.904;6.136;2022-08-21T13:36:34;23.90;99.90
12568;DHT22;6349;50.904;6.136;2022-08-21T13:38:37;23.80;99.90
12568;DHT22;6349;50.904;6.136;2022-08-21T13:40:46;23.80;99.90
12568;DHT22;6349;50.904;6.136;2022-08-21T13:42:48;23.70;99.90
12568;DHT22;6349;50.904;6.136;2022-08-21T13:44:52;23.60;99.90
12568;DHT22;6349;50.904;6.136;2022-08-21T13:46:54;23.50;99.90
12568;DHT22;6349;50.904;6.136;2022-08-21T13:48:55;23.40;99.90
12568;DHT22;6349;50.904;6.136;2022-08-21T13:50:57;23.30;99.90
12568;DHT22;6349;50.904;6.136;2022-08-21T13:53:02;23.20;99.90
12568;DHT22;6349;50.904;6.136;2022-08-21T13:55:13;23.10;99.90
12568;DHT22;6349;50.904;6.136;2022-08-21T13:57:24;23.10;99.90
12568;DHT22;6349;50.904;6.136;2022-08-21T13:59:31;23.00;99.90
12568;DHT22;6349;50.904;6.136;2022-08-21T14:01:52;23.00;99.90
12568;DHT22;6349;50.904;6.136;2022-08-21T14:04:20;23.00;99.90
12568;DHT22;6349;50.904;6.136;2022-08-21T14:06:22;22.90;99.90
12568;DHT22;6349;50.904;6.136;2022-08-21T14:08:31;22.90;99.90
12568;DHT22;6349;50.904;6.136;2022-08-21T14:10:37;22.80;99.90
12568;DHT22;6349;50.904;6.136;2022-08-21T14:12:48;22.80;99.90
12568;DHT22;6349;50.904;6.136;2022-08-21T14:14:51;22.70;99.90
12568;DHT22;6349;50.904;6.136;2022-08-21T14:17:00;22.70;99.90
12568;DHT22;6349;50.904;6.136;2022-08-21T14:21:07;22.70;99.90
12568;DHT22;6349;50.904;6.136;2022-08-21T14:23:08;22.70;99.90